Time;durP1;ratioP1;P1;durP2;ratioP2;P2;SDS_P1;SDS_P2;PMS_P1;PMS_P2;Temp;Humidity;BMP_temperature;BMP_pressure;BME280_temperature;BME280_humidity;BME280_pressure;Samples;Min_cycle;Max_cycle;Signal;HPM_P1;HPM_P2
2022/09/17 00:01:45;;;;;;;5.13;1.27;;;13.00;99.90;;;;;;5049725;28;20213;-31
2022/09/17 00:04:12;;;;;;;6.13;0.97;;;13.00;99.90;;;;;;5049564;28;20285;-32
2022/09/17 00:06:41;;;;;;;5.43;0.97;;;13.00;99.90;;;;;;5065790;28;20216;-32
2022/09/17 00:09:09;;;;;;;3.60;1.13;;;13.00;99.90;;;;;;5061456;28;20210;-39
2022/09/17 00:11:41;;;;;;;5.50;0.97;;;13.00;99.90;;;;;;5060666;28;20230;-32
2022/09/17 00:14:13;;;;;;;3.67;0.90;;;13.00;99.90;;;;;;5058260;28;20218;-32
2022/09/17 00:16:45;;;;;;;1.80;0.63;;;13.00;99.90;;;;;;5048520;28;20201;-32
2022/09/17 00:19:21;;;;;;;5.20;0.90;;;13.00;99.90;;;;;;5046474;28;20225;-32
2022/09/17 00:21:51;;;;;;;4.27;1.33;;;13.00;99.90;;;;;;5046409;28;20236;-32
2022/09/17 00:24:21;;;;;;;4.07;0.80;;;13.00;99.90;;;;;;5048314;28;20713;-32
2022/09/17 00:26:49;;;;;;;2.67;0.70;;;13.00;99.90;;;;;;5060916;28;20246;-32
2022/09/17 00:29:16;;;;;;;6.40;1.03;;;13.00;99.90;;;;;;5063669;28;20303;-32
2022/09/17 00:31:46;;;;;;;2.90;0.90;;;13.00;99.90;;;;;;5061426;28;20208;-32
2022/09/17 00:34:20;;;;;;;2.40;0.63;;;13.00;99.90;;;;;;5061821;28;20289;-32
2022/09/17 00:36:49;;;;;;;6.60;1.10;;;13.00;99.90;;;;;;5066478;28;20203;-32
2022/09/17 00:39:17;;;;;;;4.83;0.93;;;13.10;99.90;;;;;;5061471;28;20671;-32
2022/09/17 00:41:44;;;;;;;3.30;0.80;;;13.10;99.90;;;;;;5056667;28;20258;-32
2022/09/17 00:44:43;;;;;;;4.73;0.83;;;13.10;99.90;;;;;;5067415;28;20223;-32
2022/09/17 00:47:29;;;;;;;5.70;1.10;;;13.10;99.90;;;;;;5062463;28;20196;-32
2022/09/17 00:50:04;;;;;;;3.87;1.03;;;13.10;99.90;;;;;;5046887;28;20285;-31
2022/09/17 00:52:38;;;;;;;6.93;0.90;;;13.20;99.90;;;;;;5047796;28;20208;-31
2022/09/17 00:55:11;;;;;;;6.73;1.27;;;13.10;99.90;;;;;;5050419;28;20200;-31
2022/09/17 00:57:40;;;;;;;6.20;1.20;;;13.20;99.90;;;;;;5046805;28;20219;-32
2022/09/17 01:00:11;;;;;;;5.67;1.77;;;13.10;99.90;;;;;;5061814;28;20210;-32
2022/09/17 01:02:45;;;;;;;4.20;1.03;;;13.10;99.90;;;;;;5050768;28;20212;-31
2022/09/17 01:05:13;;;;;;;2.73;0.90;;;13.20;99.90;;;;;;5051503;28;20224;-32
2022/09/17 01:07:59;;;;;;;5.53;1.03;;;13.20;99.90;;;;;;5056368;28;20626;-31
2022/09/17 01:11:11;;;;;;;3.87;1.20;;;13.20;99.90;;;;;;5054162;28;20223;-32
2022/09/17 01:14:07;;;;;;;3.30;1.00;;;13.20;99.90;;;;;;5060554;28;20196;-32
2022/09/17 01:17:01;;;;;;;4.97;1.20;;;13.10;99.90;;;;;;5047365;28;20207;-32
2022/09/17 01:19:46;;;;;;;5.40;1.00;;;13.20;99.90;;;;;;5037268;28;20219;-32
2022/09/17 01:22:35;;;;;;;3.33;1.03;;;13.10;99.90;;;;;;5046450;28;20207;-32
2022/09/17 01:25:06;;;;;;;6.03;1.10;;;13.20;99.90;;;;;;5053307;28;20212;-32
2022/09/17 01:27:38;;;;;;;3.73;0.90;;;13.10;99.90;;;;;;5053158;28;20629;-32
2022/09/17 01:30:37;;;;;;;3.83;0.87;;;13.20;99.90;;;;;;5053845;28;20203;-32
2022/09/17 01:33:23;;;;;;;4.60;1.40;;;13.20;99.90;;;;;;5044141;28;20192;-32
2022/09/17 01:36:09;;;;;;;6.60;1.00;;;13.20;99.90;;;;;;5045960;28;20220;-32
2022/09/17 01:38:50;;;;;;;3.57;0.60;;;13.20;99.90;;;;;;5046356;28;20212;-32
2022/09/17 01:41:26;;;;;;;3.37;0.80;;;13.20;99.90;;;;;;5049892;28;20207;-32
2022/09/17 01:44:01;;;;;;;6.57;0.80;;;13.20;99.90;;;;;;5062501;28;20218;-31
2022/09/17 01:46:39;;;;;;;2.23;0.70;;;13.20;99.90;;;;;;5056547;28;20203;-32
2022/09/17 01:49:14;;;;;;;3.60;0.73;;;13.20;99.90;;;;;;5054087;28;20254;-36
2022/09/17 01:51:47;;;;;;;3.87;0.80;;;13.20;99.90;;;;;;5054200;28;20379;-31
2022/09/17 01:54:26;;;;;;;4.67;0.87;;;13.20;99.90;;;;;;5049726;28;20242;-32
2022/09/17 01:56:56;;;;;;;5.97;0.97;;;13.20;99.90;;;;;;5052761;28;20211;-31
2022/09/17 01:59:41;;;;;;;5.27;0.90;;;13.20;99.90;;;;;;5067250;28;20584;-32
2022/09/17 02:02:16;;;;;;;4.07;0.80;;;13.20;99.90;;;;;;5053096;28;20794;-33
2022/09/17 02:05:10;;;;;;;5.10;1.07;;;13.20;99.90;;;;;;5048474;28;20223;-33
2022/09/17 02:07:44;;;;;;;5.70;1.00;;;13.20;99.90;;;;;;5051521;28;20220;-33
2022/09/17 02:10:21;;;;;;;3.37;0.80;;;13.20;99.90;;;;;;5053172;28;20630;-33
2022/09/17 02:13:00;;;;;;;3.73;1.20;;;13.20;99.90;;;;;;5070244;28;20203;-34
2022/09/17 02:15:38;;;;;;;4.77;0.97;;;13.20;99.90;;;;;;5065113;28;20422;-32
2022/09/17 02:18:18;;;;;;;5.23;1.00;;;13.20;99.90;;;;;;5049910;28;20218;-34
2022/09/17 02:20:57;;;;;;;3.40;0.83;;;13.20;99.90;;;;;;5049535;28;20228;-33
2022/09/17 02:23:34;;;;;;;4.23;0.87;;;13.20;99.90;;;;;;5051025;28;20211;-33
2022/09/17 02:26:10;;;;;;;2.40;0.60;;;13.20;99.90;;;;;;5062292;28;20227;-33
2022/09/17 02:28:40;;;;;;;3.33;0.73;;;13.20;99.90;;;;;;5056945;28;20235;-34
2022/09/17 02:31:10;;;;;;;5.30;1.00;;;13.20;99.90;;;;;;5058884;28;20318;-32
2022/09/17 02:33:40;;;;;;;4.47;1.03;;;13.20;99.90;;;;;;5065546;28;20266;-32
2022/09/17 02:36:13;;;;;;;5.00;0.93;;;13.20;99.90;;;;;;5068634;28;20210;-32
2022/09/17 02:38:43;;;;;;;5.47;1.10;;;13.20;99.90;;;;;;5052066;28;20203;-32
2022/09/17 02:41:30;;;;;;;1.60;1.03;;;13.20;99.90;;;;;;5063765;28;20651;-32
2022/09/17 02:44:21;;;;;;;4.57;1.00;;;13.30;99.90;;;;;;5068258;28;20207;-32
2022/09/17 02:47:04;;;;;;;8.20;1.27;;;13.30;99.90;;;;;;5069108;28;20577;-31
2022/09/17 02:49:56;;;;;;;7.43;1.27;;;13.30;99.90;;;;;;5064098;28;20249;-32
2022/09/17 02:52:30;;;;;;;3.37;1.00;;;13.30;99.90;;;;;;5049942;28;20470;-32
2022/09/17 02:55:23;;;;;;;7.70;1.20;;;13.30;99.90;;;;;;5050441;28;20749;-32
2022/09/17 02:57:56;;;;;;;4.50;0.80;;;13.30;99.90;;;;;;5049499;28;20862;-32
2022/09/17 03:00:28;;;;;;;3.73;0.70;;;13.30;99.90;;;;;;5047304;28;20204;-32
2022/09/17 03:03:00;;;;;;;5.63;1.17;;;13.30;99.90;;;;;;5048273;28;20220;-33
2022/09/17 03:05:31;;;;;;;5.20;0.97;;;13.30;99.90;;;;;;5059145;28;20215;-33
2022/09/17 03:08:01;;;;;;;5.13;0.93;;;13.30;99.90;;;;;;5054324;28;20208;-33
2022/09/17 03:10:32;;;;;;;4.13;1.00;;;13.30;99.90;;;;;;5062935;28;20302;-33
2022/09/17 03:12:59;;;;;;;4.17;1.00;;;13.30;99.90;;;;;;5064919;28;20203;-34
2022/09/17 03:15:27;;;;;;;3.63;1.10;;;13.30;99.90;;;;;;5053875;28;20246;-33
2022/09/17 03:17:58;;;;;;;5.80;1.20;;;13.30;99.90;;;;;;5048751;28;20254;-32
2022/09/17 03:20:30;;;;;;;4.80;1.10;;;13.30;99.90;;;;;;5048551;28;20240;-32
2022/09/17 03:22:57;;;;;;;7.00;1.10;;;13.30;99.90;;;;;;5048120;28;20204;-32
2022/09/17 03:25:24;;;;;;;5.87;1.40;;;13.30;99.90;;;;;;5054142;28;20232;-32
2022/09/17 03:27:56;;;;;;;7.27;1.30;;;13.20;99.90;;;;;;5074968;28;20214;-32
2022/09/17 03:30:28;;;;;;;6.67;1.30;;;13.20;99.90;;;;;;5062059;28;20279;-32
2022/09/17 03:32:59;;;;;;;4.63;1.17;;;13.20;99.90;;;;;;5064342;28;20535;-32
2022/09/17 03:35:27;;;;;;;3.90;1.13;;;13.20;99.90;;;;;;5053545;28;20746;-31
2022/09/17 03:37:54;;;;;;;4.50;1.00;;;13.20;99.90;;;;;;5051346;28;20295;-32
2022/09/17 03:40:23;;;;;;;7.87;1.27;;;13.20;99.90;;;;;;5056025;28;20227;-32
2022/09/17 03:42:51;;;;;;;4.30;0.83;;;13.20;99.90;;;;;;5057791;28;20220;-32
2022/09/17 03:45:23;;;;;;;5.47;1.30;;;13.20;99.90;;;;;;5051286;28;20228;-32
2022/09/17 03:47:55;;;;;;;5.37;1.00;;;13.10;99.90;;;;;;5046622;28;20675;-32
2022/09/17 03:50:23;;;;;;;6.90;1.10;;;13.10;99.90;;;;;;5048163;28;20196;-32
2022/09/17 03:52:52;;;;;;;6.70;1.10;;;13.10;99.90;;;;;;5046728;28;20212;-32
2022/09/17 03:55:24;;;;;;;2.83;0.83;;;13.10;99.90;;;;;;5047424;28;20200;-32
2022/09/17 03:57:51;;;;;;;4.67;0.80;;;13.10;99.90;;;;;;5056878;28;20829;-32
2022/09/17 04:00:21;;;;;;;4.57;1.17;;;13.10;99.90;;;;;;5058544;28;20568;-32
2022/09/17 04:02:48;;;;;;;5.33;1.00;;;13.10;99.90;;;;;;5054777;28;20286;-32
2022/09/17 04:05:16;;;;;;;4.93;0.93;;;13.00;99.90;;;;;;5064310;28;20212;-32
2022/09/17 04:07:43;;;;;;;4.27;0.83;;;13.00;99.90;;;;;;5047390;28;20207;-32
2022/09/17 04:10:10;;;;;;;8.27;1.13;;;13.00;99.90;;;;;;5046954;28;20270;-32
2022/09/17 04:12:40;;;;;;;7.77;1.30;;;13.00;99.90;;;;;;5055802;28;20635;-32
2022/09/17 04:15:10;;;;;;;5.57;1.47;;;13.00;99.90;;;;;;5051863;28;20313;-32
2022/09/17 04:17:40;;;;;;;5.13;1.17;;;13.00;99.90;;;;;;5067395;28;20666;-32
2022/09/17 04:20:08;;;;;;;7.27;1.50;;;13.00;99.90;;;;;;5065625;28;20674;-32
2022/09/17 04:22:35;;;;;;;5.57;1.30;;;13.00;99.90;;;;;;5053608;28;20212;-32
2022/09/17 04:25:04;;;;;;;5.10;1.33;;;12.90;99.90;;;;;;5046690;28;20231;-32
2022/09/17 04:27:39;;;;;;;7.50;1.30;;;12.90;99.90;;;;;;5051796;28;20235;-32
2022/09/17 04:30:09;;;;;;;6.90;1.40;;;12.90;99.90;;;;;;5056139;28;20555;-32
2022/09/17 04:32:40;;;;;;;5.03;1.10;;;12.90;99.90;;;;;;5047713;28;20192;-32
2022/09/17 04:35:13;;;;;;;5.13;1.20;;;12.90;99.90;;;;;;5051956;28;20630;-32
2022/09/17 04:37:43;;;;;;;6.20;1.47;;;12.80;99.90;;;;;;5064793;28;20289;-32
2022/09/17 04:40:12;;;;;;;6.93;1.93;;;12.80;99.90;;;;;;5064940;28;20203;-32
2022/09/17 04:42:41;;;;;;;4.27;1.10;;;12.80;99.90;;;;;;5054010;28;20203;-32
2022/09/17 04:45:09;;;;;;;5.67;1.07;;;12.80;99.90;;;;;;5065296;28;20678;-32
2022/09/17 04:47:42;;;;;;;5.40;1.27;;;12.80;99.90;;;;;;5050494;28;20295;-32
2022/09/17 04:50:11;;;;;;;7.37;1.27;;;12.80;99.90;;;;;;5053690;28;20219;-32
2022/09/17 04:52:42;;;;;;;7.07;1.53;;;12.80;99.90;;;;;;5047106;28;20768;-32
2022/09/17 04:55:10;;;;;;;4.07;1.20;;;12.80;99.90;;;;;;5046893;28;20247;-32
2022/09/17 04:57:48;;;;;;;7.47;1.80;;;12.80;99.90;;;;;;5058012;28;20249;-32
2022/09/17 05:00:22;;;;;;;6.90;1.47;;;12.80;99.90;;;;;;5053689;28;20204;-32
2022/09/17 05:02:53;;;;;;;7.77;1.50;;;12.80;99.90;;;;;;5056487;28;20222;-32
2022/09/17 05:05:25;;;;;;;5.17;1.53;;;12.80;99.90;;;;;;5048733;28;20220;-32
2022/09/17 05:07:55;;;;;;;7.27;1.23;;;12.90;99.90;;;;;;5050745;28;20196;-32
2022/09/17 05:10:27;;;;;;;8.10;1.40;;;12.90;99.90;;;;;;5051944;28;20253;-32
2022/09/17 05:12:57;;;;;;;3.90;1.07;;;12.80;99.90;;;;;;5054177;28;20235;-32
2022/09/17 05:15:25;;;;;;;6.70;1.40;;;12.80;99.90;;;;;;5056957;28;20204;-32
2022/09/17 05:17:55;;;;;;;4.80;1.10;;;12.90;99.90;;;;;;5048225;28;20207;-32
2022/09/17 05:20:27;;;;;;;6.53;1.23;;;12.90;99.90;;;;;;5056032;28;20200;-32
2022/09/17 05:22:54;;;;;;;7.27;1.13;;;12.90;99.90;;;;;;5058431;28;20215;-32
2022/09/17 05:25:24;;;;;;;6.07;1.17;;;12.90;99.90;;;;;;5051876;28;20229;-32
2022/09/17 05:27:53;;;;;;;8.03;1.23;;;12.80;99.90;;;;;;5050935;28;20207;-32
2022/09/17 05:30:20;;;;;;;5.87;1.20;;;12.80;99.90;;;;;;5052222;28;20227;-32
2022/09/17 05:32:48;;;;;;;8.90;1.83;;;12.80;99.90;;;;;;5049844;28;20226;-32
2022/09/17 05:35:18;;;;;;;6.87;1.53;;;12.80;99.90;;;;;;5056068;28;20211;-32
2022/09/17 05:37:55;;;;;;;5.47;1.20;;;12.80;99.90;;;;;;5055743;28;20196;-32
2022/09/17 05:40:26;;;;;;;6.30;1.40;;;12.80;99.90;;;;;;5049879;28;20212;-32
2022/09/17 05:42:59;;;;;;;6.07;1.37;;;12.80;99.90;;;;;;5052863;28;20208;-32
2022/09/17 05:45:26;;;;;;;4.87;1.03;;;12.80;99.90;;;;;;5046648;28;20703;-31
2022/09/17 05:47:59;;;;;;;6.33;1.27;;;12.80;99.90;;;;;;5055939;28;20208;-31
2022/09/17 05:50:27;;;;;;;11.27;2.00;;;12.80;99.90;;;;;;5057183;28;20195;-32
2022/09/17 05:53:06;;;;;;;11.37;2.60;;;12.80;99.90;;;;;;5066398;28;20204;-32
2022/09/17 05:55:36;;;;;;;15.07;2.17;;;12.80;99.90;;;;;;5057329;28;20680;-33
2022/09/17 05:58:14;;;;;;;7.43;2.03;;;12.80;99.90;;;;;;5055194;28;20238;-32
2022/09/17 06:00:46;;;;;;;14.27;2.27;;;12.80;99.90;;;;;;5043020;28;20241;-32
2022/09/17 06:03:21;;;;;;;13.80;1.90;;;12.90;99.90;;;;;;5045541;28;20196;-32
2022/09/17 06:05:58;;;;;;;7.50;1.80;;;12.90;99.90;;;;;;5050731;28;20227;-32
2022/09/17 06:08:27;;;;;;;9.80;1.70;;;12.90;99.90;;;;;;5053063;28;20293;-32
2022/09/17 06:10:57;;;;;;;7.27;1.13;;;12.90;99.90;;;;;;5046980;28;20211;-31
2022/09/17 06:13:31;;;;;;;6.00;1.10;;;12.90;99.90;;;;;;5046724;28;20520;-32
2022/09/17 06:15:59;;;;;;;7.30;1.23;;;12.90;99.90;;;;;;5055846;28;20204;-31
2022/09/17 06:18:31;;;;;;;13.90;1.70;;;13.00;99.90;;;;;;5058599;28;20308;-32
2022/09/17 06:21:04;;;;;;;4.73;1.80;;;12.90;99.90;;;;;;5045551;28;20235;-32
2022/09/17 06:23:35;;;;;;;15.40;2.87;;;13.00;99.90;;;;;;5056662;28;20250;-32
2022/09/17 06:26:06;;;;;;;18.93;2.57;;;13.00;99.90;;;;;;5051565;28;20208;-32
2022/09/17 06:28:34;;;;;;;13.00;1.90;;;13.00;99.90;;;;;;5057961;28;20236;-32
2022/09/17 06:31:11;;;;;;;8.53;1.80;;;13.00;99.90;;;;;;5059174;28;20305;-32
2022/09/17 06:33:41;;;;;;;10.00;1.93;;;13.10;99.90;;;;;;5057624;28;20218;-32
2022/09/17 06:36:11;;;;;;;4.70;1.30;;;13.10;99.90;;;;;;5057904;28;20211;-32
2022/09/17 06:38:43;;;;;;;11.50;1.73;;;13.20;99.90;;;;;;5065568;28;20247;-32
2022/09/17 06:41:13;;;;;;;7.70;1.63;;;13.20;99.90;;;;;;5068547;28;20234;-32
2022/09/17 06:43:41;;;;;;;7.53;1.67;;;13.20;99.90;;;;;;5063430;28;20277;-32
2022/09/17 06:46:09;;;;;;;9.77;1.60;;;13.20;99.90;;;;;;5050010;28;20220;-32
2022/09/17 06:48:39;;;;;;;10.00;1.60;;;13.20;99.90;;;;;;5047113;28;20211;-32
2022/09/17 06:51:13;;;;;;;7.77;1.57;;;13.20;99.90;;;;;;5047461;28;20225;-32
2022/09/17 06:53:40;;;;;;;7.00;1.23;;;13.20;99.90;;;;;;5059584;28;20199;-32
2022/09/17 06:56:12;;;;;;;6.27;1.57;;;13.20;99.90;;;;;;5052103;28;20208;-31
2022/09/17 06:58:45;;;;;;;12.00;2.47;;;13.30;99.90;;;;;;5049315;28;20723;-32
2022/09/17 07:01:15;;;;;;;7.33;1.77;;;13.30;99.90;;;;;;5056310;28;20282;-32
2022/09/17 07:03:42;;;;;;;9.83;1.77;;;13.30;99.90;;;;;;5051052;28;20285;-32
2022/09/17 07:06:11;;;;;;;12.03;1.80;;;13.30;99.90;;;;;;5049118;28;20227;-32
2022/09/17 07:08:38;;;;;;;6.27;1.50;;;13.40;99.90;;;;;;5059631;28;20595;-32
2022/09/17 07:11:07;;;;;;;14.47;2.80;;;13.40;99.90;;;;;;5052070;28;20235;-32
2022/09/17 07:13:36;;;;;;;16.50;2.60;;;13.40;99.90;;;;;;5048870;28;20313;-32
2022/09/17 07:16:05;;;;;;;16.77;3.30;;;13.40;99.90;;;;;;5047269;28;20212;-31
2022/09/17 07:18:33;;;;;;;19.63;4.23;;;13.40;99.90;;;;;;5063003;28;20381;-32
2022/09/17 07:21:03;;;;;;;14.70;2.77;;;13.50;99.90;;;;;;5052567;28;20258;-31
2022/09/17 07:23:34;;;;;;;16.97;2.43;;;13.50;99.90;;;;;;5058716;28;20265;-32
2022/09/17 07:26:11;;;;;;;8.43;1.60;;;13.50;99.90;;;;;;5056846;28;20324;-32
2022/09/17 07:28:40;;;;;;;5.40;1.33;;;13.60;99.90;;;;;;5067158;28;20199;-32
2022/09/17 07:31:09;;;;;;;5.27;1.20;;;13.60;99.90;;;;;;5067043;28;20200;-32
2022/09/17 07:33:44;;;;;;;9.50;1.70;;;13.60;99.90;;;;;;5071372;28;20261;-32
2022/09/17 07:36:17;;;;;;;8.07;1.97;;;13.70;99.90;;;;;;5078718;28;20713;-32
2022/09/17 07:38:47;;;;;;;7.17;1.73;;;13.70;99.90;;;;;;5050532;28;20685;-32
2022/09/17 07:41:16;;;;;;;8.20;2.03;;;13.80;99.90;;;;;;5058321;28;20239;-32
2022/09/17 07:43:44;;;;;;;9.87;1.70;;;13.80;99.90;;;;;;5063350;28;20204;-32
2022/09/17 07:46:20;;;;;;;8.20;1.77;;;13.80;99.90;;;;;;5062690;28;20216;-31
2022/09/17 07:48:51;;;;;;;8.70;1.40;;;13.90;99.90;;;;;;5057117;28;20196;-31
2022/09/17 07:51:24;;;;;;;7.00;1.33;;;13.90;99.90;;;;;;5047359;28;20208;-31
2022/09/17 07:53:52;;;;;;;5.60;1.63;;;13.90;99.90;;;;;;5051229;28;20201;-31
2022/09/17 07:56:22;;;;;;;4.00;1.33;;;14.00;99.90;;;;;;5051081;28;20203;-31
2022/09/17 07:58:52;;;;;;;6.00;1.53;;;13.90;99.90;;;;;;5052993;28;20239;-31
2022/09/17 08:01:21;;;;;;;3.13;1.03;;;14.00;99.90;;;;;;5050987;28;20203;-32
2022/09/17 08:03:53;;;;;;;6.40;1.60;;;14.00;99.90;;;;;;5054646;28;20704;-32
2022/09/17 08:06:25;;;;;;;8.30;1.70;;;14.00;99.90;;;;;;5064178;28;20293;-31
2022/09/17 08:08:55;;;;;;;15.77;1.80;;;14.10;99.90;;;;;;5056214;28;20206;-31
2022/09/17 08:11:25;;;;;;;11.87;2.27;;;14.10;99.90;;;;;;5058381;28;20230;-31
2022/09/17 08:14:17;;;;;;;8.97;1.80;;;14.20;99.90;;;;;;5059642;28;20289;-32
2022/09/17 08:16:51;;;;;;;7.63;1.50;;;14.10;99.90;;;;;;5056250;28;20226;-31
2022/09/17 08:19:19;;;;;;;8.70;1.80;;;14.20;99.90;;;;;;5048621;28;20200;-32
2022/09/17 08:21:49;;;;;;;9.40;1.57;;;14.20;99.90;;;;;;5049518;28;20213;-32
2022/09/17 08:24:19;;;;;;;4.30;1.20;;;14.20;99.90;;;;;;5062256;28;20207;-32
2022/09/17 08:26:48;;;;;;;3.10;1.30;;;14.20;99.90;;;;;;5029616;28;20228;-32
2022/09/17 08:29:15;;;;;;;4.40;1.27;;;14.30;99.90;;;;;;5051394;28;20663;-31
2022/09/17 08:31:47;;;;;;;5.27;1.50;;;14.30;99.90;;;;;;5059996;28;20640;-32
2022/09/17 08:34:16;;;;;;;5.93;1.43;;;14.30;99.90;;;;;;5079011;28;20195;-32
2022/09/17 08:36:43;;;;;;;7.63;1.53;;;14.40;99.90;;;;;;5087665;28;20721;-32
2022/09/17 08:39:11;;;;;;;6.37;1.40;;;14.40;99.90;;;;;;5059650;28;20223;-31
2022/09/17 08:42:06;;;;;;;5.57;1.40;;;14.50;99.90;;;;;;5046492;28;20207;-32
2022/09/17 08:44:44;;;;;;;5.57;1.53;;;14.50;99.90;;;;;;5064719;28;20211;-32
2022/09/17 08:47:19;;;;;;;7.17;1.93;;;14.50;99.90;;;;;;5062655;28;20240;-32
2022/09/17 08:49:56;;;;;;;5.47;1.20;;;14.60;99.90;;;;;;5063505;28;20731;-31
2022/09/17 08:52:44;;;;;;;3.23;1.10;;;14.60;99.90;;;;;;5051071;28;20207;-33
2022/09/17 08:55:35;;;;;;;3.50;1.10;;;14.60;99.90;;;;;;5047943;28;20350;-33
2022/09/17 08:58:21;;;;;;;12.90;1.93;;;14.60;99.90;;;;;;5043842;28;20236;-32
2022/09/17 09:00:57;;;;;;;8.60;1.77;;;14.60;99.90;;;;;;5049773;28;20226;-33
2022/09/17 09:03:50;;;;;;;4.97;1.00;;;14.60;99.90;;;;;;5057304;28;20273;-33
2022/09/17 09:06:25;;;;;;;8.50;1.50;;;14.60;99.90;;;;;;5050991;28;20226;-32
2022/09/17 09:09:03;;;;;;;5.30;1.33;;;14.70;99.90;;;;;;5065212;28;20238;-33
2022/09/17 09:11:34;;;;;;;9.00;1.77;;;14.70;99.90;;;;;;5063120;28;20210;-32
2022/09/17 09:14:31;;;;;;;9.87;1.97;;;14.80;99.90;;;;;;5062974;28;20203;-33
2022/09/17 09:17:06;;;;;;;6.37;1.60;;;14.80;99.90;;;;;;5049104;28;20212;-33
2022/09/17 09:19:43;;;;;;;6.73;1.47;;;14.80;99.90;;;;;;5049856;28;20199;-33
2022/09/17 09:22:37;;;;;;;6.87;1.53;;;14.90;99.90;;;;;;5057520;28;20223;-33
2022/09/17 09:25:22;;;;;;;6.53;1.30;;;14.90;99.90;;;;;;5062299;28;20195;-32
2022/09/17 09:28:11;;;;;;;8.60;1.40;;;14.90;99.90;;;;;;5066810;28;20981;-33
2022/09/17 09:30:49;;;;;;;5.80;1.70;;;14.90;99.90;;;;;;5060468;28;20204;-32
2022/09/17 09:33:21;;;;;;;3.47;1.20;;;14.90;99.90;;;;;;5054904;28;20203;-32
2022/09/17 09:35:49;;;;;;;6.10;1.50;;;14.90;99.90;;;;;;5068282;28;20215;-33
2022/09/17 09:38:39;;;;;;;7.50;1.37;;;15.00;99.90;;;;;;5049064;28;20659;-32
2022/09/17 09:41:19;;;;;;;8.60;1.73;;;15.00;99.90;;;;;;5061638;28;20206;-34
2022/09/17 09:44:15;;;;;;;5.00;1.03;;;15.00;99.90;;;;;;5066304;28;20211;-34
2022/09/17 09:47:12;;;;;;;5.00;0.93;;;15.00;99.90;;;;;;5048791;28;20285;-33
2022/09/17 09:49:42;;;;;;;4.27;0.70;;;15.00;99.90;;;;;;5046055;28;20200;-32
2022/09/17 09:52:32;;;;;;;2.00;0.80;;;15.00;99.90;;;;;;5047889;28;20196;-32
2022/09/17 09:55:08;;;;;;;3.50;0.70;;;15.10;99.90;;;;;;5050478;28;20223;-33
2022/09/17 09:57:53;;;;;;;4.83;1.00;;;15.10;99.90;;;;;;5050705;28;20433;-33
2022/09/17 10:00:35;;;;;;;6.07;1.33;;;15.10;99.90;;;;;;5046993;28;20210;-32
2022/09/17 10:03:21;;;;;;;5.87;1.20;;;15.10;99.90;;;;;;5055840;28;20624;-32
2022/09/17 10:06:06;;;;;;;4.80;1.03;;;15.20;99.90;;;;;;5044339;28;20218;-32
2022/09/17 10:08:36;;;;;;;7.20;1.27;;;15.30;99.90;;;;;;5049658;28;20219;-32
2022/09/17 10:11:25;;;;;;;3.43;1.10;;;15.30;99.90;;;;;;5058161;28;20215;-31
2022/09/17 10:13:52;;;;;;;8.10;1.70;;;15.30;99.90;;;;;;5058971;28;20741;-31
2022/09/17 10:16:24;;;;;;;7.50;1.30;;;15.40;99.90;;;;;;5057751;28;20207;-32
2022/09/17 10:19:06;;;;;;;5.67;1.07;;;15.40;99.90;;;;;;5054566;28;20290;-31
2022/09/17 10:21:36;;;;;;;7.10;1.80;;;15.40;99.90;;;;;;5057887;28;20207;-31
2022/09/17 10:24:14;;;;;;;4.83;0.87;;;15.40;99.90;;;;;;5056615;28;20666;-32
2022/09/17 10:26:41;;;;;;;7.50;0.90;;;15.30;99.90;;;;;;5054091;28;20887;-31
2022/09/17 10:29:17;;;;;;;3.07;0.60;;;15.20;99.90;;;;;;5047859;28;20196;-31
2022/09/17 10:31:50;;;;;;;2.43;0.60;;;15.20;99.90;;;;;;5049700;28;20207;-31
2022/09/17 10:34:23;;;;;;;3.00;0.80;;;15.10;99.90;;;;;;5074713;28;20203;-31
2022/09/17 10:36:51;;;;;;;5.13;0.70;;;15.10;99.90;;;;;;5073382;28;20561;-31
2022/09/17 10:39:28;;;;;;;2.87;0.70;;;15.00;99.90;;;;;;5049213;28;20204;-32
2022/09/17 10:42:10;;;;;;;3.30;0.60;;;14.90;99.90;;;;;;5050687;28;20199;-32
2022/09/17 10:44:49;;;;;;;5.13;0.57;;;14.80;99.90;;;;;;5037313;28;20761;-32
2022/09/17 10:47:22;;;;;;;1.93;0.50;;;14.80;99.90;;;;;;5063198;28;20226;-32
2022/09/17 10:49:54;;;;;;;4.07;0.53;;;14.60;99.90;;;;;;5067823;28;20196;-32
2022/09/17 10:52:31;;;;;;;1.90;0.40;;;14.60;99.90;;;;;;5054410;28;20235;-32
2022/09/17 10:55:36;;;;;;;3.50;0.50;;;14.60;99.90;;;;;;5056843;28;20204;-32
2022/09/17 10:58:08;;;;;;;2.90;0.77;;;14.50;99.90;;;;;;5048923;28;20246;-31
2022/09/17 11:00:54;;;;;;;5.83;0.60;;;14.60;99.90;;;;;;5051488;28;20212;-33
2022/09/17 11:03:50;;;;;;;0.93;0.47;;;14.60;99.90;;;;;;5049420;28;20340;-32
2022/09/17 11:06:39;;;;;;;2.67;0.60;;;14.70;99.90;;;;;;5062832;28;20258;-31
2022/09/17 11:09:29;;;;;;;2.50;0.40;;;14.80;99.90;;;;;;5069050;28;20238;-32
2022/09/17 11:12:08;;;;;;;2.70;0.60;;;14.80;99.90;;;;;;5068310;28;20212;-31
2022/09/17 11:14:54;;;;;;;2.33;0.40;;;14.80;99.90;;;;;;5051403;28;20216;-32
2022/09/17 11:17:52;;;;;;;3.93;0.77;;;14.80;99.90;;;;;;5056114;28;20205;-31
2022/09/17 11:20:46;;;;;;;3.83;0.70;;;14.80;99.90;;;;;;5048430;28;20314;-31
2022/09/17 11:23:32;;;;;;;2.43;0.50;;;14.80;99.90;;;;;;5067224;28;20785;-31
2022/09/17 11:26:07;;;;;;;1.30;0.50;;;14.80;99.90;;;;;;5055899;28;20195;-31
2022/09/17 11:28:54;;;;;;;2.07;0.40;;;14.70;99.90;;;;;;5066359;28;20265;-31
2022/09/17 11:31:37;;;;;;;1.57;0.50;;;14.70;99.90;;;;;;5056852;28;20208;-32
2022/09/17 11:34:34;;;;;;;1.87;0.50;;;14.80;99.90;;;;;;5068108;28;20203;-31
2022/09/17 11:37:19;;;;;;;3.03;0.40;;;14.80;99.90;;;;;;5052272;28;20245;-31
2022/09/17 11:39:53;;;;;;;3.43;0.60;;;14.80;99.90;;;;;;5050571;28;20222;-31
2022/09/17 11:42:35;;;;;;;2.57;0.53;;;14.90;99.90;;;;;;5066629;28;20259;-32
2022/09/17 11:45:13;;;;;;;1.20;0.50;;;14.90;99.90;;;;;;5055488;28;20208;-32
2022/09/17 11:47:52;;;;;;;2.20;0.50;;;14.90;99.90;;;;;;5045925;28;20226;-31
2022/09/17 11:50:36;;;;;;;1.53;0.50;;;14.90;99.90;;;;;;5047458;28;20590;-31
2022/09/17 11:53:25;;;;;;;3.30;0.50;;;14.90;99.90;;;;;;5053577;28;20230;-32
2022/09/17 11:55:56;;;;;;;4.97;1.00;;;14.90;99.90;;;;;;5048773;28;20290;-31
2022/09/17 11:58:43;;;;;;;3.23;0.70;;;15.00;99.90;;;;;;5051191;28;20334;-31
2022/09/17 12:01:30;;;;;;;2.77;0.40;;;15.00;99.90;;;;;;5063086;28;20211;-32
2022/09/17 12:04:25;;;;;;;2.27;0.70;;;15.10;99.90;;;;;;5046543;28;20208;-30
2022/09/17 12:07:32;;;;;;;2.33;0.40;;;15.10;99.90;;;;;;5055105;28;20697;-31
2022/09/17 12:10:28;;;;;;;2.97;0.70;;;15.10;99.90;;;;;;5055909;28;20200;-30
2022/09/17 12:13:20;;;;;;;3.37;0.60;;;15.10;99.90;;;;;;5048878;28;20220;-31
2022/09/17 12:15:56;;;;;;;3.73;0.57;;;15.10;99.90;;;;;;5049675;28;20610;-31
2022/09/17 12:18:47;;;;;;;4.27;1.03;;;15.10;99.90;;;;;;5033795;28;20598;-31
2022/09/17 12:21:20;;;;;;;4.97;1.13;;;15.10;99.90;;;;;;5047054;28;20234;-30
2022/09/17 12:24:02;;;;;;;4.73;1.10;;;15.20;99.90;;;;;;5056815;28;20212;-31
2022/09/17 12:27:10;;;;;;;5.93;1.00;;;15.20;99.90;;;;;;5048364;28;20235;-31
2022/09/17 12:29:43;;;;;;;4.63;1.37;;;15.30;99.90;;;;;;5047436;28;20208;-31
2022/09/17 12:32:38;;;;;;;6.73;1.17;;;15.30;99.90;;;;;;5063520;28;20223;-30
2022/09/17 12:35:32;;;;;;;5.30;1.00;;;15.40;99.90;;;;;;5061173;28;20223;-31
2022/09/17 12:38:41;;;;;;;4.63;1.00;;;15.40;99.90;;;;;;5066195;28;20257;-31
2022/09/17 12:41:27;;;;;;;3.97;0.90;;;15.40;99.90;;;;;;5065524;28;20282;-31
2022/09/17 12:44:14;;;;;;;3.70;1.07;;;15.40;99.90;;;;;;5052344;28;20299;-31
2022/09/17 12:46:41;;;;;;;7.50;1.10;;;15.40;99.90;;;;;;5056334;28;20254;-32
2022/09/17 12:49:19;;;;;;;8.37;1.20;;;15.40;99.90;;;;;;5045978;28;20561;-31
2022/09/17 12:51:56;;;;;;;6.60;0.93;;;15.40;99.90;;;;;;5046697;28;20207;-31
2022/09/17 12:54:45;;;;;;;5.90;1.27;;;15.40;99.90;;;;;;5044411;28;20192;-32
2022/09/17 12:57:18;;;;;;;6.30;1.40;;;15.50;99.90;;;;;;5056292;28;20613;-32
2022/09/17 13:00:13;;;;;;;5.37;1.00;;;15.50;99.90;;;;;;5048258;28;20592;-31
2022/09/17 13:03:19;;;;;;;9.53;2.07;;;15.50;99.90;;;;;;5056999;28;20207;-31
2022/09/17 13:06:04;;;;;;;5.90;1.60;;;15.60;99.90;;;;;;5042421;28;20203;-31
2022/09/17 13:09:08;;;;;;;7.17;1.23;;;15.70;99.90;;;;;;5046882;28;20733;-31
2022/09/17 13:11:55;;;;;;;9.13;1.50;;;15.70;99.90;;;;;;5050774;28;20200;-31
2022/09/17 13:15:00;;;;;;;8.40;1.90;;;15.70;99.90;;;;;;5060077;28;21890;-31
2022/09/17 13:17:45;;;;;;;7.47;1.50;;;15.70;99.90;;;;;;5063862;28;20243;-32
2022/09/17 13:21:00;;;;;;;6.80;1.40;;;15.70;99.90;;;;;;5056656;28;20566;-31
2022/09/17 13:23:37;;;;;;;8.63;1.53;;;15.70;99.90;;;;;;5050671;28;20624;-31
2022/09/17 13:26:05;;;;;;;5.70;1.67;;;15.70;99.90;;;;;;5049415;28;20202;-32
2022/09/17 13:28:40;;;;;;;5.20;1.50;;;15.70;99.90;;;;;;5051991;28;20315;-30
2022/09/17 13:31:38;;;;;;;12.07;2.00;;;15.80;99.90;;;;;;5050189;28;20249;-30
2022/09/17 13:34:20;;;;;;;8.03;1.60;;;15.80;99.90;;;;;;5053205;28;20963;-31